sensor_id;sensor_type;location;lat;lon;timestamp;pressure;altitude;pressure_sealevel;temperature
47484;BMP280;54076;50.322;18.650;2023-04-06T00:03:03;98281.34;;;-5.48
47484;BMP280;54076;50.322;18.650;2023-04-06T00:08:04;98280.21;;;-5.43
47484;BMP280;54076;50.322;18.650;2023-04-06T00:13:06;98277.57;;;-5.42
47484;BMP280;54076;50.322;18.650;2023-04-06T00:18:08;98279.47;;;-5.56
47484;BMP280;54076;50.322;18.650;2023-04-06T00:23:09;98278.59;;;-5.80
47484;BMP280;54076;50.322;18.650;2023-04-06T00:28:10;98276.92;;;-5.73
47484;BMP280;54076;50.322;18.650;2023-04-06T00:33:11;98277.25;;;-5.62
47484;BMP280;54076;50.322;18.650;2023-04-06T00:38:12;98271.83;;;-5.66
47484;BMP280;54076;50.322;18.650;2023-04-06T00:43:13;98273.73;;;-5.77
47484;BMP280;54076;50.322;18.650;2023-04-06T00:48:16;98269.99;;;-5.80
47484;BMP280;54076;50.322;18.650;2023-04-06T00:53:17;98276.00;;;-5.99
47484;BMP280;54076;50.322;18.650;2023-04-06T00:58:18;98275.79;;;-6.11
47484;BMP280;54076;50.322;18.650;2023-04-06T01:03:19;98265.01;;;-6.28
47484;BMP280;54076;50.322;18.650;2023-04-06T01:08:20;98263.52;;;-6.43
47484;BMP280;54076;50.322;18.650;2023-04-06T01:13:21;98267.94;;;-6.45
47484;BMP280;54076;50.322;18.650;2023-04-06T01:18:29;98268.45;;;-6.45
47484;BMP280;54076;50.322;18.650;2023-04-06T01:23:30;98265.67;;;-6.57
47484;BMP280;54076;50.322;18.650;2023-04-06T01:28:31;98265.70;;;-6.49
47484;BMP280;54076;50.322;18.650;2023-04-06T01:33:32;98267.04;;;-6.35
47484;BMP280;54076;50.322;18.650;2023-04-06T01:38:33;98267.01;;;-6.35
47484;BMP280;54076;50.322;18.650;2023-04-06T01:43:34;98266.16;;;-6.38
47484;BMP280;54076;50.322;18.650;2023-04-06T01:48:35;98266.30;;;-6.42
47484;BMP280;54076;50.322;18.650;2023-04-06T01:53:37;98271.34;;;-6.54
47484;BMP280;54076;50.322;18.650;2023-04-06T01:58:38;98264.54;;;-6.55
47484;BMP280;54076;50.322;18.650;2023-04-06T02:03:39;98259.33;;;-6.47
47484;BMP280;54076;50.322;18.650;2023-04-06T02:08:40;98260.73;;;-6.42
47484;BMP280;54076;50.322;18.650;2023-04-06T02:13:41;98261.70;;;-6.46
47484;BMP280;54076;50.322;18.650;2023-04-06T02:18:42;98261.25;;;-6.29
47484;BMP280;54076;50.322;18.650;2023-04-06T02:23:43;98259.36;;;-6.21
47484;BMP280;54076;50.322;18.650;2023-04-06T02:28:44;98261.77;;;-6.23
47484;BMP280;54076;50.322;18.650;2023-04-06T02:33:45;98261.14;;;-6.29
47484;BMP280;54076;50.322;18.650;2023-04-06T02:38:46;98265.39;;;-6.20
47484;BMP280;54076;50.322;18.650;2023-04-06T02:43:47;98265.53;;;-6.06
47484;BMP280;54076;50.322;18.650;2023-04-06T02:48:48;98264.72;;;-5.94
47484;BMP280;54076;50.322;18.650;2023-04-06T02:53:50;98265.86;;;-5.98
47484;BMP280;54076;50.322;18.650;2023-04-06T02:58:51;98263.11;;;-5.79
47484;BMP280;54076;50.322;18.650;2023-04-06T03:03:52;98261.71;;;-5.81
47484;BMP280;54076;50.322;18.650;2023-04-06T03:08:53;98261.67;;;-5.80
47484;BMP280;54076;50.322;18.650;2023-04-06T03:13:54;98263.08;;;-5.77
47484;BMP280;54076;50.322;18.650;2023-04-06T03:18:55;98266.00;;;-5.72
47484;BMP280;54076;50.322;18.650;2023-04-06T03:23:56;98265.38;;;-5.72
47484;BMP280;54076;50.322;18.650;2023-04-06T03:28:57;98267.11;;;-5.68
47484;BMP280;54076;50.322;18.650;2023-04-06T03:33:58;98264.94;;;-5.84
47484;BMP280;54076;50.322;18.650;2023-04-06T03:39:00;98275.14;;;-5.93
47484;BMP280;54076;50.322;18.650;2023-04-06T03:44:01;98272.54;;;-5.93
47484;BMP280;54076;50.322;18.650;2023-04-06T03:49:02;98272.02;;;-6.08
47484;BMP280;54076;50.322;18.650;2023-04-06T03:54:03;98276.38;;;-6.08
47484;BMP280;54076;50.322;18.650;2023-04-06T03:59:04;98274.33;;;-6.34
47484;BMP280;54076;50.322;18.650;2023-04-06T04:04:05;98276.83;;;-6.36
47484;BMP280;54076;50.322;18.650;2023-04-06T04:09:06;98281.23;;;-6.17
47484;BMP280;54076;50.322;18.650;2023-04-06T04:14:07;98282.92;;;-6.10
47484;BMP280;54076;50.322;18.650;2023-04-06T04:19:09;98278.58;;;-6.09
47484;BMP280;54076;50.322;18.650;2023-04-06T04:24:10;98283.77;;;-6.10
47484;BMP280;54076;50.322;18.650;2023-04-06T04:29:11;98285.01;;;-6.44
47484;BMP280;54076;50.322;18.650;2023-04-06T04:34:12;98283.52;;;-6.71
47484;BMP280;54076;50.322;18.650;2023-04-06T04:39:13;98282.92;;;-6.70
47484;BMP280;54076;50.322;18.650;2023-04-06T04:44:14;98286.83;;;-6.70
47484;BMP280;54076;50.322;18.650;2023-04-06T04:49:15;98282.17;;;-6.62
47484;BMP280;54076;50.322;18.650;2023-04-06T04:54:16;98286.70;;;-6.75
47484;BMP280;54076;50.322;18.650;2023-04-06T04:59:17;98289.52;;;-6.73
47484;BMP280;54076;50.322;18.650;2023-04-06T05:04:19;98285.42;;;-6.58
47484;BMP280;54076;50.322;18.650;2023-04-06T05:09:20;98284.87;;;-6.56
47484;BMP280;54076;50.322;18.650;2023-04-06T05:14:21;98281.84;;;-6.43
47484;BMP280;54076;50.322;18.650;2023-04-06T05:19:22;98285.39;;;-6.32
47484;BMP280;54076;50.322;18.650;2023-04-06T05:24:23;98293.45;;;-6.37
47484;BMP280;54076;50.322;18.650;2023-04-06T05:29:24;98294.27;;;-6.47
47484;BMP280;54076;50.322;18.650;2023-04-06T05:34:26;98293.86;;;-6.19
47484;BMP280;54076;50.322;18.650;2023-04-06T05:39:27;98289.56;;;-6.09
47484;BMP280;54076;50.322;18.650;2023-04-06T05:44:28;98289.45;;;-5.92
47484;BMP280;54076;50.322;18.650;2023-04-06T05:49:29;98283.09;;;-5.80
47484;BMP280;54076;50.322;18.650;2023-04-06T05:54:30;98280.98;;;-5.80
47484;BMP280;54076;50.322;18.650;2023-04-06T05:59:31;98284.59;;;-5.40
47484;BMP280;54076;50.322;18.650;2023-04-06T06:04:32;98287.11;;;-5.10
47484;BMP280;54076;50.322;18.650;2023-04-06T06:09:33;98285.76;;;-4.93
47484;BMP280;54076;50.322;18.650;2023-04-06T06:14:34;98280.01;;;-4.67
47484;BMP280;54076;50.322;18.650;2023-04-06T06:19:35;98277.17;;;-4.69
47484;BMP280;54076;50.322;18.650;2023-04-06T06:24:36;98277.42;;;-4.41
47484;BMP280;54076;50.322;18.650;2023-04-06T06:29:37;98275.56;;;-4.50
47484;BMP280;54076;50.322;18.650;2023-04-06T06:34:38;98276.83;;;-4.30
47484;BMP280;54076;50.322;18.650;2023-04-06T06:39:39;98277.55;;;-4.16
47484;BMP280;54076;50.322;18.650;2023-04-06T06:44:40;98281.04;;;-3.74
47484;BMP280;54076;50.322;18.650;2023-04-06T06:49:41;98276.04;;;-3.73
47484;BMP280;54076;50.322;18.650;2023-04-06T06:54:42;98282.38;;;-3.20
47484;BMP280;54076;50.322;18.650;2023-04-06T06:59:44;98277.36;;;-3.13
47484;BMP280;54076;50.322;18.650;2023-04-06T07:04:48;98282.56;;;-2.91
47484;BMP280;54076;50.322;18.650;2023-04-06T07:09:50;98280.34;;;-2.92
47484;BMP280;54076;50.322;18.650;2023-04-06T07:14:51;98278.41;;;-2.45
47484;BMP280;54076;50.322;18.650;2023-04-06T07:19:52;98281.29;;;-1.67
47484;BMP280;54076;50.322;18.650;2023-04-06T07:24:53;98281.66;;;-1.28
47484;BMP280;54076;50.322;18.650;2023-04-06T07:29:55;98282.16;;;-1.91
47484;BMP280;54076;50.322;18.650;2023-04-06T07:34:56;98285.41;;;-1.58
47484;BMP280;54076;50.322;18.650;2023-04-06T07:39:58;98295.46;;;-1.47
47484;BMP280;54076;50.322;18.650;2023-04-06T07:45:00;98297.96;;;-1.51
47484;BMP280;54076;50.322;18.650;2023-04-06T07:50:01;98299.48;;;-2.04
47484;BMP280;54076;50.322;18.650;2023-04-06T07:55:02;98295.05;;;-2.23
47484;BMP280;54076;50.322;18.650;2023-04-06T08:00:04;98294.77;;;-2.08
47484;BMP280;54076;50.322;18.650;2023-04-06T08:05:05;98292.80;;;-1.95
47484;BMP280;54076;50.322;18.650;2023-04-06T08:10:06;98286.55;;;-1.61
47484;BMP280;54076;50.322;18.650;2023-04-06T08:15:08;98290.86;;;-1.36
47484;BMP280;54076;50.322;18.650;2023-04-06T08:20:10;98294.80;;;-1.17
47484;BMP280;54076;50.322;18.650;2023-04-06T08:25:11;98289.20;;;-1.39
47484;BMP280;54076;50.322;18.650;2023-04-06T08:30:12;98288.36;;;-0.89
47484;BMP280;54076;50.322;18.650;2023-04-06T08:35:15;98279.11;;;-0.70
47484;BMP280;54076;50.322;18.650;2023-04-06T08:40:17;98279.47;;;-0.64
47484;BMP280;54076;50.322;18.650;2023-04-06T08:45:18;98274.84;;;-0.21
47484;BMP280;54076;50.322;18.650;2023-04-06T08:50:22;98271.58;;;0.09
47484;BMP280;54076;50.322;18.650;2023-04-06T08:55:24;98264.46;;;-0.25
47484;BMP280;54076;50.322;18.650;2023-04-06T09:00:26;98257.90;;;-0.60
47484;BMP280;54076;50.322;18.650;2023-04-06T09:05:28;98260.97;;;0.13
47484;BMP280;54076;50.322;18.650;2023-04-06T09:10:29;98258.55;;;-0.41
47484;BMP280;54076;50.322;18.650;2023-04-06T09:15:30;98247.04;;;-0.18
47484;BMP280;54076;50.322;18.650;2023-04-06T09:20:31;98252.95;;;0.10
47484;BMP280;54076;50.322;18.650;2023-04-06T09:25:32;98244.20;;;-0.29
47484;BMP280;54076;50.322;18.650;2023-04-06T09:30:33;98253.83;;;-0.07
47484;BMP280;54076;50.322;18.650;2023-04-06T09:35:36;98245.50;;;0.32
47484;BMP280;54076;50.322;18.650;2023-04-06T09:40:51;98242.16;;;0.08
47484;BMP280;54076;50.322;18.650;2023-04-06T09:45:52;98237.35;;;0.47
47484;BMP280;54076;50.322;18.650;2023-04-06T09:50:59;98243.35;;;0.94
47484;BMP280;54076;50.322;18.650;2023-04-06T09:56:03;98227.04;;;0.92
47484;BMP280;54076;50.322;18.650;2023-04-06T10:01:12;98232.25;;;1.01
47484;BMP280;54076;50.322;18.650;2023-04-06T10:06:15;98224.96;;;1.11
47484;BMP280;54076;50.322;18.650;2023-04-06T10:11:17;98225.89;;;1.42
47484;BMP280;54076;50.322;18.650;2023-04-06T10:16:19;98220.34;;;1.26
47484;BMP280;54076;50.322;18.650;2023-04-06T10:21:23;98204.80;;;0.90
47484;BMP280;54076;50.322;18.650;2023-04-06T10:26:26;98209.73;;;1.49
47484;BMP280;54076;50.322;18.650;2023-04-06T10:31:28;98207.98;;;1.77
47484;BMP280;54076;50.322;18.650;2023-04-06T10:36:34;98196.80;;;1.46
47484;BMP280;54076;50.322;18.650;2023-04-06T10:41:44;98206.52;;;1.67
47484;BMP280;54076;50.322;18.650;2023-04-06T10:46:56;98205.33;;;1.30
47484;BMP280;54076;50.322;18.650;2023-04-06T10:51:58;98202.18;;;1.22
47484;BMP280;54076;50.322;18.650;2023-04-06T10:56:59;98192.56;;;1.20
47484;BMP280;54076;50.322;18.650;2023-04-06T11:02:01;98197.39;;;1.50
47484;BMP280;54076;50.322;18.650;2023-04-06T11:07:02;98200.66;;;1.70
47484;BMP280;54076;50.322;18.650;2023-04-06T11:12:04;98195.89;;;1.92
47484;BMP280;54076;50.322;18.650;2023-04-06T11:17:05;98190.42;;;1.87
47484;BMP280;54076;50.322;18.650;2023-04-06T11:22:07;98182.08;;;1.25
47484;BMP280;54076;50.322;18.650;2023-04-06T11:27:08;98176.43;;;1.49
47484;BMP280;54076;50.322;18.650;2023-04-06T11:32:10;98182.01;;;0.93
47484;BMP280;54076;50.322;18.650;2023-04-06T11:37:12;98174.36;;;0.63
47484;BMP280;54076;50.322;18.650;2023-04-06T11:42:13;98174.08;;;0.55
47484;BMP280;54076;50.322;18.650;2023-04-06T11:47:32;98174.83;;;0.39
47484;BMP280;54076;50.322;18.650;2023-04-06T11:52:34;98162.77;;;0.54
47484;BMP280;54076;50.322;18.650;2023-04-06T11:57:35;98161.84;;;0.97
47484;BMP280;54076;50.322;18.650;2023-04-06T12:02:37;98163.76;;;1.37
47484;BMP280;54076;50.322;18.650;2023-04-06T12:07:39;98156.53;;;1.68
47484;BMP280;54076;50.322;18.650;2023-04-06T12:12:40;98143.83;;;1.16
47484;BMP280;54076;50.322;18.650;2023-04-06T12:17:41;98144.74;;;0.99
47484;BMP280;54076;50.322;18.650;2023-04-06T12:22:42;98136.98;;;1.53
47484;BMP280;54076;50.322;18.650;2023-04-06T12:27:43;98140.75;;;1.71
47484;BMP280;54076;50.322;18.650;2023-04-06T12:32:44;98135.75;;;0.93
47484;BMP280;54076;50.322;18.650;2023-04-06T12:37:45;98139.34;;;0.78
47484;BMP280;54076;50.322;18.650;2023-04-06T12:42:46;98135.34;;;0.25
47484;BMP280;54076;50.322;18.650;2023-04-06T12:47:47;98130.39;;;0.77
47484;BMP280;54076;50.322;18.650;2023-04-06T12:52:48;98121.34;;;0.51
47484;BMP280;54076;50.322;18.650;2023-04-06T12:57:50;98120.48;;;0.71
47484;BMP280;54076;50.322;18.650;2023-04-06T13:02:51;98119.82;;;0.63
47484;BMP280;54076;50.322;18.650;2023-04-06T13:07:52;98106.16;;;0.60
47484;BMP280;54076;50.322;18.650;2023-04-06T13:12:53;98103.95;;;0.72
47484;BMP280;54076;50.322;18.650;2023-04-06T13:17:54;98096.88;;;0.70
47484;BMP280;54076;50.322;18.650;2023-04-06T13:22:55;98099.05;;;0.59
47484;BMP280;54076;50.322;18.650;2023-04-06T13:27:56;98093.31;;;0.51
47484;BMP280;54076;50.322;18.650;2023-04-06T13:32:57;98086.77;;;0.49
47484;BMP280;54076;50.322;18.650;2023-04-06T13:37:58;98090.25;;;0.40
47484;BMP280;54076;50.322;18.650;2023-04-06T13:42:59;98088.58;;;0.61
47484;BMP280;54076;50.322;18.650;2023-04-06T13:48:00;98087.10;;;0.55
47484;BMP280;54076;50.322;18.650;2023-04-06T13:53:01;98083.73;;;0.32
47484;BMP280;54076;50.322;18.650;2023-04-06T13:58:02;98083.52;;;0.41
47484;BMP280;54076;50.322;18.650;2023-04-06T14:03:03;98088.90;;;0.28
47484;BMP280;54076;50.322;18.650;2023-04-06T14:08:04;98083.15;;;0.26
47484;BMP280;54076;50.322;18.650;2023-04-06T14:13:06;98079.14;;;0.22
47484;BMP280;54076;50.322;18.650;2023-04-06T14:18:08;98077.91;;;0.05
47484;BMP280;54076;50.322;18.650;2023-04-06T14:23:09;98077.29;;;0.17
47484;BMP280;54076;50.322;18.650;2023-04-06T14:28:10;98073.52;;;-0.29
47484;BMP280;54076;50.322;18.650;2023-04-06T14:33:11;98077.37;;;-0.16
47484;BMP280;54076;50.322;18.650;2023-04-06T14:38:12;98078.17;;;-0.14
47484;BMP280;54076;50.322;18.650;2023-04-06T14:43:14;98073.83;;;-0.40
47484;BMP280;54076;50.322;18.650;2023-04-06T14:48:15;98068.45;;;-0.26
47484;BMP280;54076;50.322;18.650;2023-04-06T14:53:18;98064.95;;;-0.57
47484;BMP280;54076;50.322;18.650;2023-04-06T14:58:20;98063.20;;;-0.61
47484;BMP280;54076;50.322;18.650;2023-04-06T15:03:21;98065.30;;;-0.71
47484;BMP280;54076;50.322;18.650;2023-04-06T15:08:23;98061.75;;;-0.51
47484;BMP280;54076;50.322;18.650;2023-04-06T15:13:24;98062.88;;;-0.24
47484;BMP280;54076;50.322;18.650;2023-04-06T15:18:26;98062.14;;;-0.35
47484;BMP280;54076;50.322;18.650;2023-04-06T15:23:27;98059.39;;;-0.18
47484;BMP280;54076;50.322;18.650;2023-04-06T15:28:31;98057.94;;;-0.01
47484;BMP280;54076;50.322;18.650;2023-04-06T15:33:32;98062.80;;;-0.23
47484;BMP280;54076;50.322;18.650;2023-04-06T15:38:33;98061.38;;;-0.54
47484;BMP280;54076;50.322;18.650;2023-04-06T15:43:34;98060.03;;;-0.40
47484;BMP280;54076;50.322;18.650;2023-04-06T15:48:35;98056.38;;;-0.52
47484;BMP280;54076;50.322;18.650;2023-04-06T15:53:36;98058.61;;;-0.64
47484;BMP280;54076;50.322;18.650;2023-04-06T15:58:37;98061.23;;;-0.57
47484;BMP280;54076;50.322;18.650;2023-04-06T16:03:38;98060.91;;;-0.53
47484;BMP280;54076;50.322;18.650;2023-04-06T16:08:40;98062.07;;;-0.42
47484;BMP280;54076;50.322;18.650;2023-04-06T16:13:41;98058.82;;;-0.78
47484;BMP280;54076;50.322;18.650;2023-04-06T16:18:42;98061.03;;;-0.40
47484;BMP280;54076;50.322;18.650;2023-04-06T16:23:44;98061.89;;;-0.52
47484;BMP280;54076;50.322;18.650;2023-04-06T16:28:46;98062.31;;;-0.38
47484;BMP280;54076;50.322;18.650;2023-04-06T16:33:49;98063.56;;;-0.46
47484;BMP280;54076;50.322;18.650;2023-04-06T16:38:50;98063.77;;;-0.58
47484;BMP280;54076;50.322;18.650;2023-04-06T16:43:51;98057.20;;;-0.66
47484;BMP280;54076;50.322;18.650;2023-04-06T16:48:54;98059.89;;;-0.86
47484;BMP280;54076;50.322;18.650;2023-04-06T16:53:55;98061.41;;;-0.96
47484;BMP280;54076;50.322;18.650;2023-04-06T16:58:56;98066.08;;;-1.30
47484;BMP280;54076;50.322;18.650;2023-04-06T17:03:57;98077.54;;;-1.31
47484;BMP280;54076;50.322;18.650;2023-04-06T17:08:58;98077.85;;;-1.59
47484;BMP280;54076;50.322;18.650;2023-04-06T17:13:59;98081.89;;;-1.64
47484;BMP280;54076;50.322;18.650;2023-04-06T17:19:01;98091.84;;;-1.71
47484;BMP280;54076;50.322;18.650;2023-04-06T17:24:02;98101.77;;;-1.76
47484;BMP280;54076;50.322;18.650;2023-04-06T17:29:03;98101.06;;;-1.61
47484;BMP280;54076;50.322;18.650;2023-04-06T17:34:04;98102.65;;;-1.85
47484;BMP280;54076;50.322;18.650;2023-04-06T17:39:05;98105.95;;;-2.25
47484;BMP280;54076;50.322;18.650;2023-04-06T17:44:06;98113.06;;;-2.01
47484;BMP280;54076;50.322;18.650;2023-04-06T17:49:07;98117.44;;;-2.12
47484;BMP280;54076;50.322;18.650;2023-04-06T17:54:09;98123.13;;;-2.00
47484;BMP280;54076;50.322;18.650;2023-04-06T17:59:10;98128.53;;;-1.89
47484;BMP280;54076;50.322;18.650;2023-04-06T18:04:11;98130.92;;;-2.06
47484;BMP280;54076;50.322;18.650;2023-04-06T18:09:13;98133.95;;;-2.36
47484;BMP280;54076;50.322;18.650;2023-04-06T18:14:14;98136.26;;;-2.18
47484;BMP280;54076;50.322;18.650;2023-04-06T18:19:15;98127.13;;;-2.20
47484;BMP280;54076;50.322;18.650;2023-04-06T18:24:16;98126.64;;;-2.06
47484;BMP280;54076;50.322;18.650;2023-04-06T18:29:17;98121.64;;;-2.17
47484;BMP280;54076;50.322;18.650;2023-04-06T18:34:20;98122.91;;;-2.13
47484;BMP280;54076;50.322;18.650;2023-04-06T18:39:21;98126.45;;;-2.25
47484;BMP280;54076;50.322;18.650;2023-04-06T18:44:23;98124.84;;;-2.24
47484;BMP280;54076;50.322;18.650;2023-04-06T18:49:24;98127.58;;;-2.25
47484;BMP280;54076;50.322;18.650;2023-04-06T18:54:25;98132.64;;;-2.20
47484;BMP280;54076;50.322;18.650;2023-04-06T18:59:26;98127.41;;;-2.54
47484;BMP280;54076;50.322;18.650;2023-04-06T19:04:29;98122.93;;;-2.55
47484;BMP280;54076;50.322;18.650;2023-04-06T19:09:30;98124.92;;;-2.48
47484;BMP280;54076;50.322;18.650;2023-04-06T19:14:31;98122.44;;;-2.51
47484;BMP280;54076;50.322;18.650;2023-04-06T19:19:33;98117.94;;;-2.57
47484;BMP280;54076;50.322;18.650;2023-04-06T19:24:34;98122.22;;;-2.55
47484;BMP280;54076;50.322;18.650;2023-04-06T19:29:35;98115.46;;;-2.59
47484;BMP280;54076;50.322;18.650;2023-04-06T19:34:38;98112.63;;;-2.80
47484;BMP280;54076;50.322;18.650;2023-04-06T19:39:39;98108.38;;;-2.85
47484;BMP280;54076;50.322;18.650;2023-04-06T19:44:43;98097.89;;;-2.83
47484;BMP280;54076;50.322;18.650;2023-04-06T19:49:45;98097.38;;;-2.66
47484;BMP280;54076;50.322;18.650;2023-04-06T19:54:46;98089.11;;;-2.71
47484;BMP280;54076;50.322;18.650;2023-04-06T19:59:47;98085.36;;;-2.59
47484;BMP280;54076;50.322;18.650;2023-04-06T20:04:48;98085.56;;;-2.51
47484;BMP280;54076;50.322;18.650;2023-04-06T20:09:49;98078.86;;;-2.59
47484;BMP280;54076;50.322;18.650;2023-04-06T20:14:50;98075.39;;;-2.75
47484;BMP280;54076;50.322;18.650;2023-04-06T20:19:51;98081.10;;;-2.76
47484;BMP280;54076;50.322;18.650;2023-04-06T20:24:53;98085.17;;;-2.58
47484;BMP280;54076;50.322;18.650;2023-04-06T20:29:55;98085.69;;;-2.50
47484;BMP280;54076;50.322;18.650;2023-04-06T20:34:56;98083.90;;;-2.67
47484;BMP280;54076;50.322;18.650;2023-04-06T20:39:57;98078.41;;;-2.73
47484;BMP280;54076;50.322;18.650;2023-04-06T20:44:58;98075.28;;;-2.69
47484;BMP280;54076;50.322;18.650;2023-04-06T20:50:00;98074.67;;;-2.91
47484;BMP280;54076;50.322;18.650;2023-04-06T20:55:01;98079.09;;;-2.77
47484;BMP280;54076;50.322;18.650;2023-04-06T21:00:03;98073.33;;;-2.75
47484;BMP280;54076;50.322;18.650;2023-04-06T21:05:05;98070.19;;;-2.62
47484;BMP280;54076;50.322;18.650;2023-04-06T21:10:08;98060.27;;;-2.67
47484;BMP280;54076;50.322;18.650;2023-04-06T21:15:10;98058.70;;;-2.54
47484;BMP280;54076;50.322;18.650;2023-04-06T21:20:11;98056.45;;;-2.73
47484;BMP280;54076;50.322;18.650;2023-04-06T21:25:12;98056.61;;;-2.55
47484;BMP280;54076;50.322;18.650;2023-04-06T21:30:13;98051.52;;;-2.62
47484;BMP280;54076;50.322;18.650;2023-04-06T21:35:14;98045.38;;;-2.80
47484;BMP280;54076;50.322;18.650;2023-04-06T21:40:15;98046.67;;;-2.81
47484;BMP280;54076;50.322;18.650;2023-04-06T21:45:19;98043.48;;;-2.79
47484;BMP280;54076;50.322;18.650;2023-04-06T21:50:20;98042.48;;;-2.74
47484;BMP280;54076;50.322;18.650;2023-04-06T21:55:21;98038.39;;;-2.66
47484;BMP280;54076;50.322;18.650;2023-04-06T22:00:22;98028.55;;;-2.84
47484;BMP280;54076;50.322;18.650;2023-04-06T22:05:23;98030.52;;;-2.77
47484;BMP280;54076;50.322;18.650;2023-04-06T22:10:24;98027.39;;;-2.68
47484;BMP280;54076;50.322;18.650;2023-04-06T22:15:25;98021.25;;;-2.70
47484;BMP280;54076;50.322;18.650;2023-04-06T22:20:26;98012.52;;;-2.74
47484;BMP280;54076;50.322;18.650;2023-04-06T22:25:27;98002.86;;;-2.93
47484;BMP280;54076;50.322;18.650;2023-04-06T22:30:28;98000.34;;;-2.82
47484;BMP280;54076;50.322;18.650;2023-04-06T22:35:29;97994.63;;;-2.89
47484;BMP280;54076;50.322;18.650;2023-04-06T22:40:30;97991.30;;;-2.92
47484;BMP280;54076;50.322;18.650;2023-04-06T22:45:31;97982.21;;;-3.01
47484;BMP280;54076;50.322;18.650;2023-04-06T22:50:32;97981.92;;;-2.88
47484;BMP280;54076;50.322;18.650;2023-04-06T22:55:33;97978.95;;;-2.84
47484;BMP280;54076;50.322;18.650;2023-04-06T23:00:35;97982.68;;;-2.78
47484;BMP280;54076;50.322;18.650;2023-04-06T23:05:36;97973.95;;;-2.89
47484;BMP280;54076;50.322;18.650;2023-04-06T23:10:37;97968.28;;;-2.86
47484;BMP280;54076;50.322;18.650;2023-04-06T23:15:41;97971.23;;;-2.84
47484;BMP280;54076;50.322;18.650;2023-04-06T23:20:42;97965.25;;;-2.87
47484;BMP280;54076;50.322;18.650;2023-04-06T23:25:43;97958.14;;;-2.82
47484;BMP280;54076;50.322;18.650;2023-04-06T23:30:44;97952.00;;;-2.81
47484;BMP280;54076;50.322;18.650;2023-04-06T23:35:45;97946.54;;;-2.87
47484;BMP280;54076;50.322;18.650;2023-04-06T23:40:46;97941.00;;;-2.62
47484;BMP280;54076;50.322;18.650;2023-04-06T23:45:47;97943.27;;;-2.65
47484;BMP280;54076;50.322;18.650;2023-04-06T23:50:48;97944.20;;;-2.64
47484;BMP280;54076;50.322;18.650;2023-04-06T23:55:49;97932.41;;;-2.63
